Aviation Digital Data Service (ADDS)

Output produced by METARs form (1009 UTC 18 January 2022)
found at http://www.aviationweather.gov/metar/data/
 
METAR text: LFMV 181000Z AUTO 36006KT CAVOK 06/00 Q1032 NOSIG
Conditions at: LFMV (CAUMONT , FR) observed 1000 UTC 18 January 2022
Temperature: 6.0°C (43°F)
Dewpoint: 0.0°C (32°F) [RH = 65%]
Pressure (altimeter): 30.47 inches Hg (1032.0 mb)
Winds: from the N (360 degrees) at 7 MPH (6 knots; 3.1 m/s)
Visibility: 6 or more miles (10+ km)
Ceiling: ceiling and visibility are OK
Clouds: unknown
Weather: no significant weather observed at this time

METAR text: LFMV 180930Z AUTO 01007KT 340V040 CAVOK 05/00 Q1031 NOSIG
Conditions at: LFMV (CAUMONT , FR) observed 0930 UTC 18 January 2022
Temperature: 5.0°C (41°F)
Dewpoint: 0.0°C (32°F) [RH = 70%]
Pressure (altimeter): 30.44 inches Hg (1031.0 mb)
Winds: from the N (10 degrees) at 8 MPH (7 knots; 3.6 m/s)
Visibility: 6 or more miles (10+ km)
Ceiling: ceiling and visibility are OK
Clouds: unknown
Weather: no significant weather observed at this time

Forecast for: LFMV (CAUMONT , FR)
Text: TAF LFMV 180800Z 1809/1909 35010KT CAVOK
Forecast period: 0900 to 1700 UTC 18 January 2022
Forecast type: FROM: standard forecast or significant change
Winds: from the N (350 degrees) at 12 MPH (10 knots; 5.1 m/s)
Visibility: 6 or more miles (10+ km)
Ceiling: unknown
Clouds: missing
Weather: NSW  (no significant weather)
Text: BECMG 1817/1819 VRB03KT
Forecast period: 1700 UTC 18 January 2022 to 0900 UTC 19 January 2022
Forecast type: BECOMING: Conditions expected to become as follows by 1900 UTC 18 January 2022
Winds: variable direction winds at 3 MPH (3 knots; 1.5 m/s)
Visibility: 6 or more miles (10+ km)
Ceiling: unknown
Clouds: missing
Weather: NSW  (no significant weather)